createdAt,value
2022-12-03T00:02:05.343Z,100597.16
2022-12-03T00:05:08.877Z,100607.88
2022-12-03T00:08:12.539Z,100604.25
2022-12-03T00:11:15.295Z,100597.19
2022-12-03T00:14:17.995Z,100596.34
2022-12-03T00:17:28.206Z,100602.56
2022-12-03T00:20:30.949Z,100597.19
2022-12-03T00:23:37.195Z,100606.22
2022-12-03T00:26:44.370Z,100594.66
2022-12-03T00:29:47.069Z,100604.50
2022-12-03T00:32:51.086Z,100594.69
2022-12-03T00:35:56.847Z,100600.94
2022-12-03T00:38:59.524Z,100594.53
2022-12-03T00:42:02.203Z,100595.50
2022-12-03T00:45:05.662Z,100599.06
2022-12-03T00:48:09.780Z,100587.63
2022-12-03T00:51:12.465Z,100595.50
2022-12-03T00:54:18.130Z,100599.13
2022-12-03T00:57:20.823Z,100599.22
2022-12-03T01:00:25.248Z,100601.81
2022-12-03T01:03:29.484Z,100605.47
2022-12-03T01:06:32.209Z,100604.56
2022-12-03T01:09:34.966Z,100602.78
2022-12-03T01:12:37.752Z,100599.84
2022-12-03T01:15:40.577Z,100595.44
2022-12-03T01:18:46.198Z,100584.69
2022-12-03T01:21:51.261Z,100600.00
2022-12-03T01:24:54.143Z,100599.94
2022-12-03T01:27:57.257Z,100601.81
2022-12-03T01:31:17.381Z,100600.09
2022-12-03T01:34:21.423Z,100605.38
2022-12-03T01:37:26.697Z,100596.38
2022-12-03T01:40:29.365Z,100600.78
2022-12-03T01:43:32.303Z,100598.97
2022-12-03T01:46:40.403Z,100600.81
2022-12-03T01:49:47.904Z,100609.84
2022-12-03T01:52:50.815Z,100599.88
2022-12-03T01:55:53.587Z,100599.03
2022-12-03T01:58:56.509Z,100605.22
2022-12-03T02:01:59.347Z,100600.91
2022-12-03T02:05:08.531Z,100612.59
2022-12-03T02:08:29.612Z,100611.72
2022-12-03T02:11:36.617Z,100602.63
2022-12-03T02:14:39.587Z,100612.34
2022-12-03T02:17:43.705Z,100605.22
2022-12-03T02:20:54.239Z,100607.97
2022-12-03T02:24:06.007Z,100609.84
2022-12-03T02:27:10.277Z,100621.44
2022-12-03T02:30:15.470Z,100613.25
2022-12-03T02:33:18.318Z,100611.41
2022-12-03T02:36:21.746Z,100606.00
2022-12-03T02:39:30.159Z,100605.31
2022-12-03T02:42:37.307Z,100606.25
2022-12-03T02:45:44.340Z,100597.16
2022-12-03T02:48:47.113Z,100601.63
2022-12-03T02:51:49.990Z,100598.06
2022-12-03T02:54:53.376Z,100596.19
2022-12-03T02:57:58.267Z,100605.22
2022-12-03T03:01:02.948Z,100599.06
2022-12-03T03:04:06.889Z,100605.22
2022-12-03T03:07:10.497Z,100596.34
2022-12-03T03:10:19.511Z,100602.63
2022-12-03T03:13:24.302Z,100595.50
2022-12-03T03:16:27.998Z,100603.50
2022-12-03T03:19:30.988Z,100606.09
2022-12-03T03:22:34.431Z,100602.56
2022-12-03T03:25:37.919Z,100598.97
2022-12-03T03:28:51.087Z,100584.88
2022-12-03T03:31:54.075Z,100590.22
2022-12-03T03:34:57.513Z,100592.81
2022-12-03T03:38:00.958Z,100586.59
2022-12-03T03:41:06.851Z,100599.06
2022-12-03T03:44:11.376Z,100597.28
2022-12-03T03:47:14.509Z,100586.59
2022-12-03T03:50:18.273Z,100590.22
2022-12-03T03:53:22.595Z,100593.78
2022-12-03T03:56:25.419Z,100586.56
2022-12-03T03:59:29.902Z,100584.88
2022-12-03T04:02:33.601Z,100573.28
2022-12-03T04:05:36.501Z,100588.34
2022-12-03T04:08:39.263Z,100583.91
2022-12-03T04:11:59.888Z,100581.31
2022-12-03T04:15:04.356Z,100582.09
2022-12-03T04:18:30.796Z,100576.81
2022-12-03T04:21:50.890Z,100573.28
2022-12-03T04:25:16.867Z,100575.94
2022-12-03T04:28:37.101Z,100574.09
2022-12-03T04:31:59.071Z,100579.38
2022-12-03T04:35:19.463Z,100573.13
2022-12-03T04:38:22.285Z,100572.28
2022-12-03T04:41:25.030Z,100565.09
2022-12-03T04:44:39.738Z,100568.66
2022-12-03T04:47:43.790Z,100564.97
2022-12-03T04:50:46.584Z,100565.03
2022-12-03T04:53:50.124Z,100560.34
2022-12-03T04:56:52.932Z,100556.91
2022-12-03T04:59:55.634Z,100558.59
2022-12-03T05:02:59.946Z,100541.88
2022-12-03T05:06:04.077Z,100556.06
2022-12-03T05:09:06.893Z,100556.13
2022-12-03T05:12:09.659Z,100551.69
2022-12-03T05:15:12.554Z,100554.25
2022-12-03T05:18:20.204Z,100551.75
2022-12-03T05:21:22.972Z,100550.75
2022-12-03T05:24:28.032Z,100551.69
2022-12-03T05:27:30.809Z,100555.22
2022-12-03T05:30:33.891Z,100554.44
2022-12-03T05:33:43.735Z,100554.38
2022-12-03T05:36:47.076Z,100560.59
2022-12-03T05:39:49.814Z,100557.91
2022-12-03T05:43:02.842Z,100551.69
2022-12-03T05:46:05.636Z,100547.09
2022-12-03T05:49:09.827Z,100546.16
2022-12-03T05:52:13.835Z,100556.06
2022-12-03T05:55:17.271Z,100554.16
2022-12-03T05:58:20.225Z,100554.28
2022-12-03T06:01:22.954Z,100550.59
2022-12-03T06:04:27.167Z,100545.06
2022-12-03T06:07:32.929Z,100548.91
2022-12-03T06:10:35.721Z,100554.38
2022-12-03T06:13:38.445Z,100548.00
2022-12-03T06:16:41.238Z,100545.41
2022-12-03T06:19:45.397Z,100544.47
2022-12-03T06:22:48.864Z,100545.50
2022-12-03T06:25:51.597Z,100541.00
2022-12-03T06:28:57.760Z,100546.34
2022-12-03T06:32:00.500Z,100543.72
2022-12-03T06:35:05.451Z,100546.50
2022-12-03T06:38:08.203Z,100547.31
2022-12-03T06:41:10.884Z,100551.00
2022-12-03T06:44:13.907Z,100550.88
2022-12-03T06:47:17.209Z,100546.50
2022-12-03T06:50:21.335Z,100540.00
2022-12-03T06:53:26.174Z,100542.03
2022-12-03T06:56:35.084Z,100543.75
2022-12-03T06:59:39.613Z,100544.63
2022-12-03T07:02:44.709Z,100540.16
2022-12-03T07:05:49.236Z,100550.88
2022-12-03T07:08:51.953Z,100553.56
2022-12-03T07:11:54.692Z,100547.41
2022-12-03T07:14:57.433Z,100556.34
2022-12-03T07:18:00.171Z,100551.94
2022-12-03T07:21:07.539Z,100554.44
2022-12-03T07:24:11.208Z,100553.56
2022-12-03T07:27:13.942Z,100565.06
2022-12-03T07:30:17.392Z,100566.03
2022-12-03T07:33:20.081Z,100569.47
2022-12-03T07:36:24.170Z,100553.56
2022-12-03T07:39:26.993Z,100571.25
2022-12-03T07:42:29.748Z,100571.19
2022-12-03T07:45:32.501Z,100571.19
2022-12-03T07:48:35.421Z,100568.53
2022-12-03T07:51:39.531Z,100564.97
2022-12-03T07:54:42.435Z,100568.44
2022-12-03T07:57:45.944Z,100572.09
2022-12-03T08:00:50.542Z,100564.09
2022-12-03T08:03:53.263Z,100572.19
2022-12-03T08:06:57.676Z,100568.63
2022-12-03T08:10:00.457Z,100567.63
2022-12-03T08:13:04.057Z,100575.66
2022-12-03T08:16:16.421Z,100573.03
2022-12-03T08:19:20.260Z,100565.84
2022-12-03T08:22:24.359Z,100570.34
2022-12-03T08:25:29.417Z,100567.66
2022-12-03T08:28:35.233Z,100564.09
2022-12-03T08:31:38.132Z,100561.31
2022-12-03T08:34:42.792Z,100530.34
2022-12-03T08:37:46.961Z,100549.81
2022-12-03T08:40:51.444Z,100540.88
2022-12-03T08:43:54.196Z,100541.69
2022-12-03T08:47:03.385Z,100539.00
2022-12-03T08:50:27.352Z,100536.25
2022-12-03T08:53:35.333Z,100533.53
2022-12-03T08:56:38.216Z,100536.09
2022-12-03T08:59:45.379Z,100537.81
2022-12-03T09:02:51.222Z,100540.44
2022-12-03T09:05:57.152Z,100543.13
2022-12-03T09:09:06.598Z,100535.06
2022-12-03T09:12:09.763Z,100543.03
2022-12-03T09:15:12.645Z,100534.91
2022-12-03T09:18:18.463Z,100548.28
2022-12-03T09:21:21.319Z,100552.78
2022-12-03T09:24:25.473Z,100558.97
2022-12-03T09:27:28.354Z,100557.94
2022-12-03T09:30:31.996Z,100526.03
2022-12-03T09:33:35.145Z,100556.94
2022-12-03T09:36:56.170Z,100553.50
2022-12-03T09:40:00.412Z,100549.03
2022-12-03T09:43:03.921Z,100544.50
2022-12-03T09:46:07.492Z,100556.94
2022-12-03T09:49:16.106Z,100545.41
2022-12-03T09:52:24.431Z,100532.97
2022-12-03T09:55:30.119Z,100531.16
2022-12-03T09:58:34.923Z,100525.81
2022-12-03T10:01:43.062Z,100524.84
2022-12-03T10:04:45.979Z,100510.53
2022-12-03T10:07:53.555Z,100514.00
2022-12-03T10:10:57.700Z,100516.63
2022-12-03T10:14:00.380Z,100522.91
2022-12-03T10:17:05.130Z,100512.16
2022-12-03T10:20:11.735Z,100511.19
2022-12-03T10:23:22.159Z,100506.72
2022-12-03T10:26:39.835Z,100496.06
2022-12-03T10:29:42.714Z,100499.41
2022-12-03T10:32:50.817Z,100499.31
2022-12-03T10:35:55.614Z,100493.00
2022-12-03T10:39:13.198Z,100493.00
2022-12-03T10:42:17.297Z,100486.72
2022-12-03T10:45:22.587Z,100493.78
2022-12-03T10:48:27.454Z,100490.19
2022-12-03T10:51:30.233Z,100487.66
2022-12-03T10:54:36.196Z,100486.75
2022-12-03T10:57:45.953Z,100483.16
2022-12-03T11:00:50.124Z,100473.31
2022-12-03T11:03:54.932Z,100470.53
2022-12-03T11:06:57.654Z,100467.84
2022-12-03T11:10:02.999Z,100462.47
2022-12-03T11:13:41.996Z,100462.41
2022-12-03T11:17:10.087Z,100450.75
2022-12-03T11:20:29.388Z,100447.13
2022-12-03T11:24:28.869Z,100433.66
2022-12-03T11:27:31.742Z,100425.38
2022-12-03T11:31:01.212Z,100426.91
2022-12-03T11:34:42.143Z,100417.03
2022-12-03T11:37:44.969Z,100412.41
2022-12-03T11:41:08.777Z,100405.06
2022-12-03T11:44:31.244Z,100405.03
2022-12-03T11:47:38.088Z,100407.50
2022-12-03T11:50:44.008Z,100411.88
2022-12-03T11:53:47.317Z,100412.81
2022-12-03T11:56:51.504Z,100404.00
2022-12-03T12:00:02.805Z,100414.06
2022-12-03T12:03:05.590Z,100416.97
2022-12-03T12:06:11.480Z,100404.53
2022-12-03T12:09:14.179Z,100401.84
2022-12-03T12:12:30.536Z,100400.16
2022-12-03T12:15:45.142Z,100388.25
2022-12-03T12:18:53.680Z,100391.94
2022-12-03T12:22:14.211Z,100392.84
2022-12-03T12:25:37.271Z,100377.63
2022-12-03T12:28:40.402Z,100387.34
2022-12-03T12:31:43.230Z,100387.50
2022-12-03T12:34:47.644Z,100379.41
2022-12-03T12:37:59.046Z,100381.31
2022-12-03T12:41:07.792Z,100374.97
2022-12-03T12:44:11.633Z,100371.41
2022-12-03T12:47:14.425Z,100363.94
2022-12-03T12:50:18.785Z,100373.22
2022-12-03T12:53:30.007Z,100366.72
2022-12-03T12:56:33.669Z,100360.34
2022-12-03T12:59:36.696Z,100358.72
2022-12-03T13:02:45.823Z,100357.25
2022-12-03T13:05:50.678Z,100354.63
2022-12-03T13:08:55.803Z,100356.53
2022-12-03T13:12:00.464Z,100359.34
2022-12-03T13:15:11.081Z,100360.25
2022-12-03T13:18:27.242Z,100358.66
2022-12-03T13:21:38.748Z,100355.84
2022-12-03T13:24:45.414Z,100354.28
2022-12-03T13:27:48.157Z,100346.91
2022-12-03T13:30:51.172Z,100349.72
2022-12-03T13:33:54.976Z,100356.06
2022-12-03T13:36:58.781Z,100351.53
2022-12-03T13:40:12.685Z,100351.63
2022-12-03T13:43:17.512Z,100352.41
2022-12-03T13:46:20.459Z,100341.88
2022-12-03T13:49:25.065Z,100349.88
2022-12-03T13:52:28.054Z,100341.88
2022-12-03T13:55:32.853Z,100338.44
2022-12-03T13:58:37.726Z,100330.34
2022-12-03T14:01:40.729Z,100334.88
2022-12-03T14:04:43.551Z,100334.78
2022-12-03T14:07:48.504Z,100325.00
2022-12-03T14:10:58.612Z,100325.22
2022-12-03T14:14:03.269Z,100326.97
2022-12-03T14:17:06.621Z,100334.19
2022-12-03T14:20:10.414Z,100339.56
2022-12-03T14:23:13.410Z,100327.22
2022-12-03T14:26:17.664Z,100334.34
2022-12-03T14:29:20.484Z,100328.00
2022-12-03T14:32:27.603Z,100334.38
2022-12-03T14:35:30.626Z,100340.66
2022-12-03T14:38:33.510Z,100337.09
2022-12-03T14:41:55.091Z,100344.31
2022-12-03T14:44:57.747Z,100339.28
2022-12-03T14:48:00.457Z,100342.59
2022-12-03T14:51:03.760Z,100350.38
2022-12-03T14:54:06.637Z,100346.78
2022-12-03T14:57:11.566Z,100335.28
2022-12-03T15:00:15.601Z,100340.69
2022-12-03T15:03:18.387Z,100346.28
2022-12-03T15:06:21.110Z,100345.97
2022-12-03T15:09:23.872Z,100344.25
2022-12-03T15:12:28.826Z,100353.25
2022-12-03T15:15:31.545Z,100347.84
2022-12-03T15:18:34.523Z,100347.84
2022-12-03T15:21:37.325Z,100351.34
2022-12-03T15:24:40.448Z,100342.44
2022-12-03T15:27:44.427Z,100346.91
2022-12-03T15:30:47.062Z,100350.72
2022-12-03T15:33:49.839Z,100356.84
2022-12-03T15:36:53.096Z,100352.22
2022-12-03T15:39:55.993Z,100348.69
2022-12-03T15:43:00.273Z,100351.34
2022-12-03T15:46:03.511Z,100353.22
2022-12-03T15:49:06.176Z,100356.84
2022-12-03T15:52:08.985Z,100350.53
2022-12-03T15:55:11.742Z,100354.09
2022-12-03T15:58:15.804Z,100353.19
2022-12-03T16:01:18.687Z,100348.59
2022-12-03T16:04:24.503Z,100350.53
2022-12-03T16:07:30.944Z,100346.19
2022-12-03T16:10:33.677Z,100340.66
2022-12-03T16:13:37.767Z,100341.72
2022-12-03T16:16:44.220Z,100342.81
2022-12-03T16:19:47.254Z,100349.59
2022-12-03T16:22:49.969Z,100339.66
2022-12-03T16:25:52.665Z,100336.94
2022-12-03T16:29:00.107Z,100337.09
2022-12-03T16:32:03.812Z,100333.78
2022-12-03T16:35:07.230Z,100334.25
2022-12-03T16:38:09.942Z,100336.06
2022-12-03T16:41:12.668Z,100320.81
2022-12-03T16:44:31.931Z,100318.19
2022-12-03T16:47:35.222Z,100310.22
2022-12-03T16:50:38.105Z,100329.16
2022-12-03T16:53:40.833Z,100328.91
2022-12-03T16:56:44.519Z,100322.63
2022-12-03T16:59:48.549Z,100314.44
2022-12-03T17:02:53.852Z,100333.50
2022-12-03T17:05:56.618Z,100293.59
2022-12-03T17:08:59.335Z,100322.06
2022-12-03T17:12:05.096Z,100320.06
2022-12-03T17:15:10.036Z,100320.22
2022-12-03T17:18:12.870Z,100317.31
2022-12-03T17:21:15.606Z,100314.69
2022-12-03T17:24:18.304Z,100306.69
2022-12-03T17:27:23.198Z,100307.59
2022-12-03T17:30:37.868Z,100308.38
2022-12-03T17:33:42.957Z,100311.75
2022-12-03T17:36:45.777Z,100306.50
2022-12-03T17:39:48.540Z,100318.25
2022-12-03T17:42:51.287Z,100321.16
2022-12-03T17:45:55.366Z,100314.84
2022-12-03T17:48:58.096Z,100311.94
2022-12-03T17:52:00.955Z,100302.84
2022-12-03T17:55:16.326Z,100300.44
2022-12-03T17:58:24.191Z,100297.81
2022-12-03T18:01:31.185Z,100290.25
2022-12-03T18:04:34.111Z,100291.63
2022-12-03T18:07:36.852Z,100290.47
2022-12-03T18:10:39.802Z,100296.94
2022-12-03T18:13:42.772Z,100300.56
2022-12-03T18:16:46.939Z,100297.88
2022-12-03T18:19:49.702Z,100294.22
2022-12-03T18:22:52.817Z,100293.31
2022-12-03T18:25:58.815Z,100294.06
2022-12-03T18:29:02.173Z,100293.16
2022-12-03T18:32:27.016Z,100293.16
2022-12-03T18:35:31.244Z,100292.44
2022-12-03T18:38:34.747Z,100252.47
2022-12-03T18:41:38.149Z,100283.16
2022-12-03T18:44:43.788Z,100276.03
2022-12-03T18:47:52.058Z,100283.09
2022-12-03T18:50:56.417Z,100287.81
2022-12-03T18:54:02.205Z,100279.75
2022-12-03T18:57:05.156Z,100281.31
2022-12-03T19:00:13.412Z,100286.91
2022-12-03T19:03:18.226Z,100285.69
2022-12-03T19:06:24.443Z,100289.22
2022-12-03T19:09:27.594Z,100288.78
2022-12-03T19:12:33.509Z,100290.91
2022-12-03T19:15:39.479Z,100293.50
2022-12-03T19:18:44.054Z,100267.84
2022-12-03T19:21:46.789Z,100290.13
2022-12-03T19:24:49.578Z,100279.31
2022-12-03T19:27:55.075Z,100279.44
2022-12-03T19:30:59.566Z,100275.84
2022-12-03T19:34:03.630Z,100278.50
2022-12-03T19:37:07.171Z,100275.75
2022-12-03T19:40:11.260Z,100279.19
2022-12-03T19:43:14.020Z,100278.38
2022-12-03T19:46:17.195Z,100281.13
2022-12-03T19:49:22.305Z,100276.38
2022-12-03T19:52:28.116Z,100280.84
2022-12-03T19:55:30.803Z,100279.75
2022-12-03T19:58:34.520Z,100288.78
2022-12-03T20:01:40.384Z,100279.84
2022-12-03T20:04:44.556Z,100278.38
2022-12-03T20:07:47.429Z,100289.03
2022-12-03T20:10:50.189Z,100290.13
2022-12-03T20:13:54.915Z,100287.16
2022-12-03T20:16:57.751Z,100294.50
2022-12-03T20:20:02.195Z,100280.16
2022-12-03T20:23:04.971Z,100274.41
2022-12-03T20:26:09.360Z,100273.84
2022-12-03T20:29:12.211Z,100275.91
2022-12-03T20:32:15.171Z,100269.88
2022-12-03T20:35:19.528Z,100273.31
2022-12-03T20:38:23.009Z,100268.13
2022-12-03T20:41:26.286Z,100268.13
2022-12-03T20:44:31.394Z,100262.53
2022-12-03T20:47:34.170Z,100251.50
2022-12-03T20:50:40.198Z,100246.41
2022-12-03T20:53:44.025Z,100258.78
2022-12-03T20:56:46.735Z,100253.88
2022-12-03T20:59:49.596Z,100266.41
2022-12-03T21:02:53.103Z,100262.00
2022-12-03T21:06:02.348Z,100260.94
2022-12-03T21:09:07.254Z,100259.94
2022-12-03T21:12:09.963Z,100249.16
2022-12-03T21:15:12.692Z,100247.94
2022-12-03T21:18:17.665Z,100245.06
2022-12-03T21:21:22.256Z,100251.94
2022-12-03T21:24:25.048Z,100252.09
2022-12-03T21:27:27.754Z,100244.94
2022-12-03T21:30:30.648Z,100244.13
2022-12-03T21:33:34.248Z,100241.03
2022-12-03T21:36:38.324Z,100248.66
2022-12-03T21:39:41.077Z,100252.22
2022-12-03T21:42:44.119Z,100237.88
2022-12-03T21:45:47.159Z,100241.50
2022-12-03T21:48:50.171Z,100244.19
2022-12-03T21:51:56.733Z,100258.59
2022-12-03T21:54:59.463Z,100263.06
2022-12-03T21:58:02.936Z,100255.19
2022-12-03T22:01:13.005Z,100262.97
2022-12-03T22:04:16.237Z,100261.31
2022-12-03T22:07:20.574Z,100244.97
2022-12-03T22:10:23.505Z,100239.56
2022-12-03T22:13:26.690Z,100230.34
2022-12-03T22:16:29.521Z,100236.44
2022-12-03T22:19:32.546Z,100242.50
2022-12-03T22:22:37.288Z,100236.28
2022-12-03T22:25:40.008Z,100240.16
2022-12-03T22:28:44.718Z,100245.22
2022-12-03T22:31:47.625Z,100234.94
2022-12-03T22:34:50.625Z,100255.34
2022-12-03T22:37:54.675Z,100250.97
2022-12-03T22:40:57.665Z,100231.25
2022-12-03T22:44:00.417Z,100239.28
2022-12-03T22:47:04.122Z,100239.25
2022-12-03T22:50:08.778Z,100227.50
2022-12-03T22:53:13.250Z,100240.88
2022-12-03T22:56:17.169Z,100226.56
2022-12-03T22:59:20.254Z,100221.16
2022-12-03T23:02:22.993Z,100223.78
2022-12-03T23:05:25.867Z,100215.63
2022-12-03T23:08:30.060Z,100205.75
2022-12-03T23:11:33.361Z,100205.59
2022-12-03T23:14:36.779Z,100206.63
2022-12-03T23:17:39.917Z,100204.13
2022-12-03T23:20:43.610Z,100198.59
2022-12-03T23:23:48.066Z,100216.69
2022-12-03T23:26:51.219Z,100212.59
2022-12-03T23:29:54.371Z,100210.84
2022-12-03T23:33:00.329Z,100207.06
2022-12-03T23:36:06.463Z,100203.44
2022-12-03T23:39:10.556Z,100188.97
2022-12-03T23:42:13.335Z,100180.94
2022-12-03T23:45:16.274Z,100184.72
2022-12-03T23:48:19.020Z,100185.59
2022-12-03T23:51:23.804Z,100192.59
2022-12-03T23:54:27.927Z,100191.94
2022-12-03T23:57:30.647Z,100183.88
